createdAt,value
2022-09-04T00:02:47.279Z,21.00
2022-09-04T00:05:23.802Z,21.00
2022-09-04T00:08:11.713Z,20.90
2022-09-04T00:10:50.011Z,20.90
2022-09-04T00:13:22.609Z,20.90
2022-09-04T00:15:57.322Z,20.90
2022-09-04T00:18:35.210Z,20.90
2022-09-04T00:21:08.887Z,20.80
2022-09-04T00:23:46.444Z,20.80
2022-09-04T00:26:33.523Z,20.80
2022-09-04T00:29:10.211Z,20.70
2022-09-04T00:31:44.102Z,20.70
2022-09-04T00:34:30.209Z,20.70
2022-09-04T00:37:05.533Z,20.70
2022-09-04T00:39:42.460Z,20.60
2022-09-04T00:42:30.127Z,20.60
2022-09-04T00:45:20.664Z,20.50
2022-09-04T00:48:16.568Z,20.50
2022-09-04T00:51:27.693Z,20.40
2022-09-04T00:54:29.190Z,20.40
2022-09-04T00:57:42.531Z,20.30
2022-09-04T01:00:15.249Z,20.30
2022-09-04T01:03:22.531Z,20.30
2022-09-04T01:06:14.016Z,20.30
2022-09-04T01:09:18.126Z,20.20
2022-09-04T01:12:00.279Z,20.20
2022-09-04T01:14:40.158Z,20.20
2022-09-04T01:17:20.086Z,20.20
2022-09-04T01:19:57.486Z,20.20
2022-09-04T01:23:04.694Z,20.20
2022-09-04T01:26:01.795Z,20.20
2022-09-04T01:28:38.168Z,20.20
2022-09-04T01:31:21.676Z,20.20
2022-09-04T01:34:04.570Z,20.20
2022-09-04T01:36:42.001Z,20.30
2022-09-04T01:39:10.327Z,20.30
2022-09-04T01:41:46.701Z,20.20
2022-09-04T01:44:15.018Z,20.20
2022-09-04T01:46:52.034Z,20.20
2022-09-04T01:49:32.212Z,20.10
2022-09-04T01:52:15.457Z,20.00
2022-09-04T01:54:58.696Z,19.90
2022-09-04T01:57:46.811Z,19.80
2022-09-04T02:00:18.311Z,19.80
2022-09-04T02:03:00.495Z,19.70
2022-09-04T02:05:42.342Z,19.70
2022-09-04T02:08:35.359Z,19.70
2022-09-04T02:11:09.894Z,19.60
2022-09-04T02:14:02.296Z,19.70
2022-09-04T02:16:43.659Z,19.70
2022-09-04T02:19:29.819Z,19.70
2022-09-04T02:22:08.200Z,19.70
2022-09-04T02:24:46.802Z,19.70
2022-09-04T02:27:23.405Z,19.70
2022-09-04T02:30:00.797Z,19.70
2022-09-04T02:32:38.916Z,19.60
2022-09-04T02:35:19.282Z,19.60
2022-09-04T02:38:05.918Z,19.60
2022-09-04T02:40:44.011Z,19.60
2022-09-04T02:43:29.025Z,19.60
2022-09-04T02:46:05.659Z,19.50
2022-09-04T02:48:48.649Z,19.40
2022-09-04T02:51:32.164Z,19.40
2022-09-04T02:54:11.798Z,19.30
2022-09-04T02:56:49.724Z,19.30
2022-09-04T02:59:33.398Z,19.30
2022-09-04T03:02:05.760Z,19.20
2022-09-04T03:04:41.467Z,19.20
2022-09-04T03:07:15.730Z,19.20
2022-09-04T03:09:49.797Z,19.10
2022-09-04T03:12:31.088Z,19.10
2022-09-04T03:15:10.888Z,19.10
2022-09-04T03:17:50.532Z,19.00
2022-09-04T03:20:25.186Z,19.00
2022-09-04T03:23:00.482Z,19.00
2022-09-04T03:26:16.152Z,18.90
2022-09-04T03:28:58.488Z,19.00
2022-09-04T03:31:37.640Z,18.90
2022-09-04T03:34:30.967Z,18.90
2022-09-04T03:37:29.541Z,18.90
2022-09-04T03:40:14.721Z,18.90
2022-09-04T03:43:04.220Z,18.90
2022-09-04T03:45:43.636Z,18.90
2022-09-04T03:48:35.507Z,18.80
2022-09-04T03:51:15.778Z,18.80
2022-09-04T03:53:47.969Z,18.80
2022-09-04T03:56:56.247Z,18.80
2022-09-04T03:59:46.117Z,18.70
2022-09-04T04:02:26.937Z,18.70
2022-09-04T04:05:25.530Z,18.70
2022-09-04T04:08:35.717Z,18.70
2022-09-04T04:11:24.235Z,18.70
2022-09-04T04:14:29.346Z,18.70
2022-09-04T04:17:12.593Z,18.80
2022-09-04T04:20:03.431Z,18.80
2022-09-04T04:22:52.987Z,18.80
2022-09-04T04:25:55.105Z,18.80
2022-09-04T04:28:47.083Z,18.80
2022-09-04T04:31:34.102Z,18.70
2022-09-04T04:34:12.397Z,18.60
2022-09-04T04:36:54.512Z,18.50
2022-09-04T04:39:36.431Z,18.50
2022-09-04T04:42:19.224Z,18.40
2022-09-04T04:45:31.830Z,18.40
2022-09-04T04:48:52.161Z,18.30
2022-09-04T04:51:39.337Z,18.20
2022-09-04T04:54:25.170Z,18.20
2022-09-04T04:57:03.796Z,18.20
2022-09-04T04:59:44.945Z,18.20
2022-09-04T05:02:25.193Z,18.20
2022-09-04T05:05:02.361Z,18.20
2022-09-04T05:07:38.114Z,18.10
2022-09-04T05:10:18.265Z,18.10
2022-09-04T05:13:12.713Z,18.10
2022-09-04T05:16:07.867Z,18.10
2022-09-04T05:18:45.873Z,18.20
2022-09-04T05:21:21.202Z,18.30
2022-09-04T05:23:58.992Z,18.50
2022-09-04T05:26:40.007Z,18.70
2022-09-04T05:29:17.259Z,19.00
2022-09-04T05:31:56.430Z,19.30
2022-09-04T05:34:38.020Z,19.50
2022-09-04T05:37:17.199Z,19.70
2022-09-04T05:40:03.152Z,19.80
2022-09-04T05:42:49.703Z,19.80
2022-09-04T05:45:28.249Z,19.70
2022-09-04T05:48:11.938Z,19.60
2022-09-04T05:51:03.578Z,19.60
2022-09-04T05:54:02.502Z,19.50
2022-09-04T05:56:51.605Z,19.50
2022-09-04T05:59:38.690Z,19.50
2022-09-04T06:03:18.215Z,19.50
2022-09-04T06:06:11.362Z,19.50
2022-09-04T06:09:21.156Z,19.50
2022-09-04T06:12:09.746Z,19.60
2022-09-04T06:14:58.873Z,19.60
2022-09-04T06:17:52.723Z,19.70
2022-09-04T06:20:46.666Z,19.70
2022-09-04T06:23:57.670Z,19.80
2022-09-04T06:26:46.592Z,19.80
2022-09-04T06:29:57.885Z,19.90
2022-09-04T06:32:53.782Z,19.90
2022-09-04T06:35:49.463Z,20.00
2022-09-04T06:38:41.150Z,20.00
2022-09-04T06:41:39.232Z,20.00
2022-09-04T06:44:21.119Z,20.10
2022-09-04T06:47:03.709Z,20.20
2022-09-04T06:49:47.775Z,20.20
2022-09-04T06:52:26.580Z,20.30
2022-09-04T06:55:01.215Z,20.40
2022-09-04T06:58:00.224Z,20.40
2022-09-04T07:00:31.858Z,20.60
2022-09-04T07:03:40.434Z,20.70
2022-09-04T07:06:18.029Z,20.80
2022-09-04T07:09:05.442Z,20.90
2022-09-04T07:11:54.959Z,21.00
2022-09-04T07:14:42.231Z,21.10
2022-09-04T07:17:20.464Z,21.20
2022-09-04T07:20:17.868Z,21.40
2022-09-04T07:23:25.060Z,21.50
2022-09-04T07:26:06.384Z,21.70
2022-09-04T07:28:53.039Z,21.90
2022-09-04T07:31:27.033Z,22.10
2022-09-04T07:34:09.618Z,22.30
2022-09-04T07:36:44.291Z,22.50
2022-09-04T07:39:22.199Z,22.70
2022-09-04T07:41:58.849Z,23.00
2022-09-04T07:44:36.730Z,23.20
2022-09-04T07:47:15.745Z,23.40
2022-09-04T07:49:57.302Z,23.60
2022-09-04T07:52:43.576Z,23.80
2022-09-04T07:55:26.287Z,24.00
2022-09-04T07:58:21.592Z,24.30
2022-09-04T08:01:23.267Z,24.60
2022-09-04T08:04:28.477Z,24.90
2022-09-04T08:07:00.589Z,25.20
2022-09-04T08:09:48.988Z,25.40
2022-09-04T08:12:50.076Z,25.70
2022-09-04T08:15:22.005Z,25.90
2022-09-04T08:18:27.637Z,26.10
2022-09-04T08:21:13.019Z,26.30
2022-09-04T08:24:06.557Z,26.50
2022-09-04T08:26:45.301Z,26.80
2022-09-04T08:29:50.846Z,26.90
2022-09-04T08:32:41.322Z,27.10
2022-09-04T08:35:23.736Z,27.20
2022-09-04T08:38:25.231Z,27.40
2022-09-04T08:41:54.433Z,27.60
2022-09-04T08:45:27.365Z,27.90
2022-09-04T08:48:59.048Z,28.10
2022-09-04T08:52:06.770Z,28.30
2022-09-04T08:55:17.246Z,28.60
2022-09-04T08:58:28.913Z,28.90
2022-09-04T09:01:34.521Z,28.90
2022-09-04T09:05:03.015Z,28.70
2022-09-04T09:08:22.529Z,28.70
2022-09-04T09:11:27.729Z,29.00
2022-09-04T09:14:39.384Z,29.30
2022-09-04T09:17:17.074Z,29.50
2022-09-04T09:20:00.912Z,29.50
2022-09-04T09:23:25.366Z,29.60
2022-09-04T09:26:09.491Z,29.90
2022-09-04T09:29:16.322Z,30.20
2022-09-04T09:32:35.874Z,30.50
2022-09-04T09:35:57.881Z,30.70
2022-09-04T09:39:10.658Z,30.80
2022-09-04T09:42:17.025Z,30.90
2022-09-04T09:45:35.960Z,30.90
2022-09-04T09:48:48.223Z,31.00
2022-09-04T09:52:03.925Z,31.20
2022-09-04T09:55:33.662Z,31.40
2022-09-04T09:58:52.911Z,31.50
2022-09-04T10:01:52.293Z,31.70
2022-09-04T10:04:56.216Z,31.80
2022-09-04T10:08:16.697Z,31.90
2022-09-04T10:11:16.942Z,32.00
2022-09-04T10:14:33.416Z,32.00
2022-09-04T10:17:53.035Z,32.10
2022-09-04T10:21:10.506Z,32.10
2022-09-04T10:24:30.317Z,32.20
2022-09-04T10:27:38.564Z,32.20
2022-09-04T10:30:13.620Z,32.30
2022-09-04T10:33:26.472Z,32.40
2022-09-04T10:36:14.450Z,32.60
2022-09-04T10:39:16.048Z,32.70
2022-09-04T10:42:08.065Z,32.80
2022-09-04T10:44:54.301Z,32.80
2022-09-04T10:48:01.810Z,32.80
2022-09-04T10:51:09.907Z,32.90
2022-09-04T10:54:14.102Z,32.90
2022-09-04T10:56:55.256Z,32.70
2022-09-04T10:59:50.372Z,32.70
2022-09-04T11:03:05.197Z,32.80
2022-09-04T11:06:26.300Z,33.00
2022-09-04T11:09:43.474Z,33.20
2022-09-04T11:12:40.068Z,33.40
2022-09-04T11:15:39.631Z,33.50
2022-09-04T11:19:19.905Z,33.50
2022-09-04T11:22:40.045Z,33.50
2022-09-04T11:26:05.769Z,33.50
2022-09-04T11:29:12.816Z,33.60
2022-09-04T11:32:38.596Z,33.70
2022-09-04T11:35:51.151Z,33.70
2022-09-04T11:38:57.155Z,33.60
2022-09-04T11:42:08.355Z,33.60
2022-09-04T11:45:03.772Z,33.70
2022-09-04T11:48:23.462Z,33.80
2022-09-04T11:51:37.191Z,33.90
2022-09-04T11:54:38.201Z,34.10
2022-09-04T11:57:17.090Z,34.20
2022-09-04T12:00:11.739Z,34.30
2022-09-04T12:03:20.175Z,34.30
2022-09-04T12:06:14.823Z,34.30
2022-09-04T12:09:27.223Z,34.30
2022-09-04T12:12:50.778Z,34.20
2022-09-04T12:16:18.285Z,34.30
2022-09-04T12:19:26.711Z,34.30
2022-09-04T12:22:31.127Z,34.40
2022-09-04T12:25:32.538Z,34.40
2022-09-04T12:29:05.818Z,34.40
2022-09-04T12:31:57.711Z,34.30
2022-09-04T12:34:46.249Z,34.20
2022-09-04T12:38:00.731Z,34.10
2022-09-04T12:40:35.256Z,34.10
2022-09-04T12:43:24.162Z,34.00
2022-09-04T12:46:10.724Z,34.10
2022-09-04T12:48:57.534Z,34.00
2022-09-04T12:51:31.332Z,34.00
2022-09-04T12:54:14.202Z,33.90
2022-09-04T12:56:51.455Z,33.90
2022-09-04T12:59:41.742Z,33.90
2022-09-04T13:02:27.740Z,33.80
2022-09-04T13:05:07.908Z,33.80
2022-09-04T13:07:52.541Z,33.70
2022-09-04T13:10:32.956Z,33.70
2022-09-04T13:13:15.502Z,33.60
2022-09-04T13:15:58.035Z,33.60
2022-09-04T13:18:43.286Z,33.60
2022-09-04T13:21:29.266Z,33.50
2022-09-04T13:24:25.513Z,33.40
2022-09-04T13:27:09.102Z,33.50
2022-09-04T13:30:03.068Z,33.50
2022-09-04T13:32:59.601Z,33.50
2022-09-04T13:35:49.475Z,33.50
2022-09-04T13:39:02.199Z,33.50
2022-09-04T13:42:14.425Z,33.50
2022-09-04T13:45:05.809Z,33.60
2022-09-04T13:47:45.248Z,33.60
2022-09-04T13:50:25.579Z,33.70
2022-09-04T13:52:59.618Z,33.60
2022-09-04T13:55:34.578Z,33.60
2022-09-04T13:58:13.166Z,33.50
2022-09-04T14:00:47.425Z,33.60
2022-09-04T14:03:31.401Z,33.60
2022-09-04T14:06:00.602Z,33.70
2022-09-04T14:08:31.495Z,33.70
2022-09-04T14:11:50.791Z,33.60
2022-09-04T14:14:45.156Z,33.50
2022-09-04T14:17:13.585Z,33.50
2022-09-04T14:19:56.802Z,33.40
2022-09-04T14:22:41.033Z,33.30
2022-09-04T14:25:15.887Z,33.30
2022-09-04T14:27:59.731Z,33.20
2022-09-04T14:30:29.705Z,33.10
2022-09-04T14:33:19.336Z,32.90
2022-09-04T14:36:05.427Z,32.60
2022-09-04T14:38:49.868Z,32.40
2022-09-04T14:41:38.146Z,32.20
2022-09-04T14:44:24.945Z,32.10
2022-09-04T14:47:09.659Z,32.00
2022-09-04T14:49:47.073Z,32.00
2022-09-04T14:52:21.640Z,31.90
2022-09-04T14:54:55.411Z,31.80
2022-09-04T14:57:31.999Z,31.70
2022-09-04T15:00:11.765Z,31.60
2022-09-04T15:02:46.892Z,31.60
2022-09-04T15:05:24.338Z,31.50
2022-09-04T15:08:00.283Z,31.50
2022-09-04T15:10:47.062Z,31.50
2022-09-04T15:13:51.793Z,31.50
2022-09-04T15:16:46.637Z,31.50
2022-09-04T15:19:33.037Z,31.50
2022-09-04T15:22:06.782Z,31.50
2022-09-04T15:24:41.157Z,31.50
2022-09-04T15:27:19.964Z,31.50
2022-09-04T15:30:05.253Z,31.40
2022-09-04T15:32:41.852Z,31.40
2022-09-04T15:35:23.659Z,31.30
2022-09-04T15:38:05.892Z,31.40
2022-09-04T15:40:38.978Z,31.30
2022-09-04T15:43:18.689Z,31.30
2022-09-04T15:45:55.626Z,31.20
2022-09-04T15:48:43.871Z,31.20
2022-09-04T15:51:20.840Z,31.20
2022-09-04T15:54:12.851Z,31.20
2022-09-04T15:56:45.926Z,31.30
2022-09-04T15:59:20.372Z,31.30
2022-09-04T16:01:56.691Z,31.30
2022-09-04T16:04:34.558Z,31.30
2022-09-04T16:07:36.487Z,31.20
2022-09-04T16:10:15.034Z,31.30
2022-09-04T16:12:52.714Z,31.20
2022-09-04T16:15:27.865Z,31.10
2022-09-04T16:18:00.161Z,31.10
2022-09-04T16:20:39.153Z,31.00
2022-09-04T16:23:12.084Z,31.00
2022-09-04T16:25:45.407Z,31.00
2022-09-04T16:28:20.124Z,30.90
2022-09-04T16:30:58.149Z,30.90
2022-09-04T16:33:36.241Z,30.80
2022-09-04T16:36:13.836Z,30.80
2022-09-04T16:38:47.550Z,30.70
2022-09-04T16:41:25.421Z,30.60
2022-09-04T16:44:26.267Z,30.40
2022-09-04T16:47:04.706Z,30.30
2022-09-04T16:49:47.080Z,30.20
2022-09-04T16:52:46.026Z,30.10
2022-09-04T16:55:24.697Z,30.00
2022-09-04T16:58:08.783Z,29.90
2022-09-04T17:01:00.019Z,29.80
2022-09-04T17:03:54.075Z,29.70
2022-09-04T17:07:02.791Z,29.60
2022-09-04T17:09:54.634Z,29.50
2022-09-04T17:12:48.289Z,29.40
2022-09-04T17:15:26.533Z,29.40
2022-09-04T17:17:56.290Z,29.40
2022-09-04T17:21:17.506Z,29.30
2022-09-04T17:28:58.848Z,29.30
2022-09-04T17:29:13.593Z,29.20
2022-09-04T17:29:38.016Z,29.20
2022-09-04T17:32:30.386Z,29.10
2022-09-04T17:40:33.546Z,29.00
2022-09-04T17:40:47.895Z,29.00
2022-09-04T17:41:37.880Z,28.90
2022-09-04T17:44:30.681Z,28.90
2022-09-04T17:47:18.291Z,28.90
2022-09-04T17:49:51.499Z,28.90
2022-09-04T17:52:26.903Z,28.90
2022-09-04T17:55:02.582Z,28.90
2022-09-04T17:57:50.647Z,28.80
2022-09-04T18:00:22.133Z,28.90
2022-09-04T18:02:57.324Z,28.80
2022-09-04T18:05:30.518Z,28.80
2022-09-04T18:08:10.614Z,28.80
2022-09-04T18:10:53.542Z,28.70
2022-09-04T18:13:38.075Z,28.70
2022-09-04T18:16:38.379Z,28.70
2022-09-04T18:19:18.098Z,28.70
2022-09-04T18:22:22.163Z,28.70
2022-09-04T18:24:43.772Z,28.60
2022-09-04T18:27:20.730Z,28.60
2022-09-04T18:37:05.620Z,28.60
2022-09-04T18:37:07.722Z,28.50
2022-09-04T18:37:16.260Z,28.50
2022-09-04T18:39:09.291Z,28.40
2022-09-04T18:48:09.692Z,28.40
2022-09-04T18:50:35.117Z,28.40
2022-09-04T18:50:52.398Z,28.40
2022-09-04T18:53:39.922Z,28.30
2022-09-04T18:56:20.189Z,28.20
2022-09-04T18:59:01.863Z,28.20
2022-09-04T19:01:42.471Z,28.10
2022-09-04T19:04:40.008Z,28.10
2022-09-04T19:07:12.235Z,28.10
2022-09-04T19:10:19.244Z,28.00
2022-09-04T19:13:01.572Z,28.00
2022-09-04T19:15:50.249Z,27.90
2022-09-04T19:18:35.762Z,27.90
2022-09-04T19:21:31.857Z,27.90
2022-09-04T19:24:22.086Z,27.80
2022-09-04T19:27:27.476Z,27.80
2022-09-04T19:30:18.463Z,27.80
2022-09-04T19:33:06.828Z,27.70
2022-09-04T19:35:45.752Z,27.70
2022-09-04T19:44:55.112Z,27.70
2022-09-04T19:46:03.653Z,27.70
2022-09-04T19:46:13.086Z,27.60
2022-09-04T19:47:28.625Z,27.60
2022-09-04T19:53:17.855Z,27.60
2022-09-04T19:53:37.867Z,27.60
2022-09-04T19:56:22.163Z,27.50
2022-09-04T19:58:57.253Z,27.50
2022-09-04T20:01:31.899Z,27.40
2022-09-04T20:04:05.724Z,27.40
2022-09-04T20:06:37.735Z,27.40
2022-09-04T20:09:17.125Z,27.30
2022-09-04T20:11:52.297Z,27.20
2022-09-04T20:14:25.805Z,27.20
2022-09-04T20:17:09.832Z,27.10
2022-09-04T20:19:42.617Z,27.10
2022-09-04T20:22:31.646Z,27.00
2022-09-04T20:25:26.549Z,26.90
2022-09-04T20:28:01.762Z,26.90
2022-09-04T20:30:31.978Z,26.80
2022-09-04T20:33:05.126Z,26.70
2022-09-04T20:35:40.290Z,26.60
2022-09-04T20:38:23.326Z,26.60
2022-09-04T20:40:59.599Z,26.50
2022-09-04T20:43:38.986Z,26.40
2022-09-04T20:51:48.057Z,26.30
2022-09-04T20:52:55.658Z,26.30
2022-09-04T20:52:56.250Z,26.20
2022-09-04T20:55:14.597Z,26.20
2022-09-04T21:03:07.522Z,26.10
2022-09-04T21:03:20.214Z,26.10
2022-09-04T21:04:43.252Z,26.00
2022-09-04T21:07:24.433Z,26.00
2022-09-04T21:10:10.016Z,26.00
2022-09-04T21:12:45.004Z,25.90
2022-09-04T21:15:25.838Z,25.80
2022-09-04T21:18:20.541Z,25.80
2022-09-04T21:21:11.906Z,25.70
2022-09-04T21:24:20.181Z,25.60
2022-09-04T21:27:35.632Z,25.60
2022-09-04T21:30:09.498Z,25.60
2022-09-04T21:33:27.164Z,25.50
2022-09-04T21:36:26.051Z,25.50
2022-09-04T21:39:43.324Z,25.50
2022-09-04T21:42:45.134Z,25.50
2022-09-04T21:45:25.429Z,25.40
2022-09-04T21:48:23.465Z,25.40
2022-09-04T21:51:05.191Z,25.40
2022-09-04T21:54:02.391Z,25.30
2022-09-04T22:02:28.099Z,25.30
2022-09-04T22:02:42.951Z,25.20
2022-09-04T22:03:22.335Z,25.20
2022-09-04T22:06:04.582Z,25.10
2022-09-04T22:13:29.338Z,25.00
2022-09-04T22:13:29.998Z,25.10
2022-09-04T22:14:55.584Z,24.90
2022-09-04T22:18:05.322Z,24.80
2022-09-04T22:20:54.238Z,24.80
2022-09-04T22:24:40.995Z,24.70
2022-09-04T22:28:07.373Z,24.70
2022-09-04T22:31:01.141Z,24.70
2022-09-04T22:34:15.476Z,24.60
2022-09-04T22:37:52.085Z,24.60
2022-09-04T22:40:36.360Z,24.60
2022-09-04T22:43:24.261Z,24.60
2022-09-04T22:46:31.079Z,24.60
2022-09-04T22:49:43.498Z,24.50
2022-09-04T22:52:45.117Z,24.50
2022-09-04T22:56:23.639Z,24.60
2022-09-04T22:58:37.423Z,24.60
2022-09-04T23:01:27.906Z,24.60
2022-09-04T23:04:17.145Z,24.50
2022-09-04T23:13:47.051Z,24.50
2022-09-04T23:13:52.516Z,24.40
2022-09-04T23:14:06.507Z,24.40
2022-09-04T23:17:13.834Z,24.40
2022-09-04T23:26:38.817Z,24.30
2022-09-04T23:26:46.604Z,24.30
2022-09-04T23:27:28.389Z,24.20
2022-09-04T23:30:25.527Z,24.20
2022-09-04T23:33:44.202Z,24.10
2022-09-04T23:37:02.800Z,24.10
2022-09-04T23:40:24.705Z,24.10
2022-09-04T23:43:39.532Z,24.00
2022-09-04T23:46:30.541Z,24.00
2022-09-04T23:49:39.757Z,24.00
2022-09-04T23:52:26.568Z,24.00
2022-09-04T23:55:41.418Z,23.90
2022-09-04T23:58:51.933Z,23.90
